Rochester, NY

4:14 AM EST on December 25, 2014 (GMT -0500)
Penn Yan | Change Station
CLOSE
Current Station
Airport
Location: Penn Yan,
Elevation: 902 ft
Nearby Weather Stations
Active Advisory: High Wind Warning Active Notice: Public Information Statement

Elev 902 ft 42.64 °N, 77.05 °W | Updated 21 minutes ago

Mostly Cloudy
Mostly Cloudy
45 °F
Feels Like 38 °F
N
17
Wind Variable Wind from SW
Gusts 34 mph

Today
High -- | Low -- °F
--% Chance of Precip.
Yesterday
High -- | Low -- °F
Precip. -- in
7:40 AM 4:40 PM
Waxing Crescent, 15% visible
Pressure 29.50 in
Visibility 10.0 miles
Clouds Few 5500 ft
Windchill 38 °F
Dew Point 33 °F
Humidity 63%
Rainfall 0.02 in
Snow Depth Not available.
UV 0 out of 12
Pollen .10 out of 12
Air Quality Not available.
Flu Activity Not available.
METAR KPEO 250853Z AUTO 23015G30KT 10SM FEW055 07/01 A2949 RMK AO2 PK WND 23033/0814 SLP990 60000 T00720006 51039

More Conditions Fewer Conditions

Pressure 29.50 in
Visibility 10.0 miles
Clouds Few 5500 ft
Windchill 38 °F
Dew Point 33 °F
Humidity 63%
Rainfall 0.02 in
Snow Depth Not available.
UV 0 out of 12
Pollen .10 out of 12
Air Quality Not available.
Flu Activity Not available.
METAR KPEO 250853Z AUTO 23015G30KT 10SM FEW055 07/01 A2949 RMK AO2 PK WND 23033/0814 SLP990 60000 T00720006 51039

More Conditions Fewer Conditions

10-Day Weather Forecast

Almanac

Astronomy

Dec. 25, 2014 Rise Set
Actual Time
Civil Twilight
Nautical Twilight
Astronomical Twilight
Moon
Length of Visible Light
Length of Day
Tomorrow will be .
, % of the Moon is Illuminated

Today's Extremes

State Highs State Lows

Community

WunderPhotos

Upload Photos

1,780,252 photos uploaded!

WunderBlogs® & News

Nearby

Air Quality

  Air Quality AQ Index Pollutant
Not available.

Snow Depth

Station Depth Elevation

Earthquake Activity

City Distance Mag. Time & Date
Minimum magnitude displayed is 2.5.

Coastal Water Temperatures

Place Temperature

Nearby Weather Stations